^^
Your Local Weather - Clay, NY Station Historical Data
Daily Summary for January 19, 2018 Units:  Both    English   Metric
« Previous Day
Next Day »
Daily Weekly Monthly Yearly Custom
  High: Low: Average:
Temperature: 33.6 °F /  0.9 °C 8.1 °F /  -13.3 °C 22.7 °F /  -5.2 °C
Dew Point: 23.2 °F /  -4.9 °C 5.3 °F /  -14.8 °C 16.6 °F /  -8.6 °C
Humidity: 91% 56% 78%
Wind Speed: 5.0mph /  8km/h - 1.2mph /  1.9km/h
Wind Gust: 10.0mph /  16.1km/h - -
Wind- - SW
Pressure: 29.99 in /  1015.5 hPa 29.74 in /  1007 hPa -
Precipitation: 0.01 in /  0.25 mm    
Historical Graphs
 
 
Tabular Data for January 19, 2018
Time Temperature Dew Point Pressure Wind Wind Speed Wind Gust Humidity Rainfall Rate (Hourly) solar
00:00 15.7 °F /  -9.1 °C 12.8 °F /  -10.7 °C 29.99in /  1015.5hPa Calm     88% 0.00in /  0mm 0 W/m2
00:05 16.1 °F /  -8.8 °C 13.2 °F /  -10.4 °C 29.98in /  1015.1hPa Calm     88% 0.00in /  0mm 0 W/m2
00:13 16.4 °F /  -8.7 °C 13.5 °F /  -10.3 °C 29.98in /  1015.1hPa Calm     88% 0.00in /  0mm 0 W/m2
00:19 16.7 °F /  -8.5 °C 13.8 °F /  -10.1 °C 29.98in /  1015.1hPa Calm     88% 0.00in /  0mm 0 W/m2
00:25 17.0 °F /  -8.3 °C 14.1 °F /  -9.9 °C 29.98in /  1015.1hPa Calm     88% 0.00in /  0mm 0 W/m2
00:32 17.2 °F /  -8.2 °C 14.3 °F /  -9.8 °C 29.98in /  1015.1hPa Calm     88% 0.00in /  0mm 0 W/m2
00:38 17.5 °F /  -8.1 °C 14.6 °F /  -9.7 °C 29.97in /  1014.8hPa Calm     88% 0.00in /  0mm 0 W/m2
00:43 17.5 °F /  -8.1 °C 14.6 °F /  -9.7 °C 29.97in /  1014.8hPa Calm     88% 0.00in /  0mm 0 W/m2
00:49 17.4 °F /  -8.1 °C 14.5 °F /  -9.7 °C 29.97in /  1014.8hPa Calm     88% 0.00in /  0mm 0 W/m2
00:56 17.3 °F /  -8.2 °C 14.4 °F /  -9.8 °C 29.97in /  1014.8hPa Calm     88% 0.00in /  0mm 0 W/m2
01:02 17.3 °F /  -8.2 °C 14.4 °F /  -9.8 °C 29.97in /  1014.8hPa Calm     88% 0.00in /  0mm 0 W/m2
01:08 17.3 °F /  -8.2 °C 14.4 °F /  -9.8 °C 29.97in /  1014.8hPa Calm     88% 0.00in /  0mm 0 W/m2
01:14 17.3 °F /  -8.2 °C 14.4 °F /  -9.8 °C 29.97in /  1014.8hPa Calm     88% 0.00in /  0mm 0 W/m2
01:20 17.5 °F /  -8.1 °C 14.6 °F /  -9.7 °C 29.96in /  1014.4hPa Calm     88% 0.00in /  0mm 0 W/m2
01:25 17.5 °F /  -8.1 °C 14.6 °F /  -9.7 °C 29.96in /  1014.4hPa Calm     88% 0.00in /  0mm 0 W/m2
01:32 17.4 °F /  -8.1 °C 14.2 °F /  -9.9 °C 29.96in /  1014.4hPa Calm     87% 0.00in /  0mm 0 W/m2
01:38 17.4 °F /  -8.1 °C 14.2 °F /  -9.9 °C 29.96in /  1014.4hPa Calm     87% 0.00in /  0mm 0 W/m2
01:44 17.4 °F /  -8.1 °C 14.2 °F /  -9.9 °C 29.96in /  1014.4hPa Calm   1.0mph /  1.6km/h 87% 0.00in /  0mm 0 W/m2
01:50 17.4 °F /  -8.1 °C 14.2 °F /  -9.9 °C 29.96in /  1014.4hPa Calm     87% 0.00in /  0mm 0 W/m2
01:55 17.3 °F /  -8.2 °C 14.1 °F /  -9.9 °C 29.96in /  1014.4hPa Calm     87% 0.00in /  0mm 0 W/m2
02:02 17.1 °F /  -8.3 °C 13.9 °F /  -10.1 °C 29.96in /  1014.4hPa Calm     87% 0.00in /  0mm 0 W/m2
02:08 17.1 °F /  -8.3 °C 13.9 °F /  -10.1 °C 29.96in /  1014.4hPa Calm     87% 0.00in /  0mm 0 W/m2
02:13 17.1 °F /  -8.3 °C 13.9 °F /  -10.1 °C 29.96in /  1014.4hPa Calm     87% 0.00in /  0mm 0 W/m2
02:19 17.0 °F /  -8.3 °C 14.1 °F /  -9.9 °C 29.95in /  1014.1hPa Calm     88% 0.00in /  0mm 0 W/m2
02:26 16.9 °F /  -8.4 °C 14.0 °F /  -10 °C 29.95in /  1014.1hPa Calm     88% 0.00in /  0mm 0 W/m2
02:32 16.8 °F /  -8.4 °C 13.9 °F /  -10.1 °C 29.95in /  1014.1hPa Calm     88% 0.00in /  0mm 0 W/m2
02:38 16.7 °F /  -8.5 °C 13.8 °F /  -10.1 °C 29.95in /  1014.1hPa Calm     88% 0.00in /  0mm 0 W/m2
02:43 16.4 °F /  -8.7 °C 13.2 °F /  -10.4 °C 29.95in /  1014.1hPa Calm     87% 0.00in /  0mm 0 W/m2
02:49 16.0 °F /  -8.9 °C 12.8 °F /  -10.7 °C 29.95in /  1014.1hPa Calm     87% 0.00in /  0mm 0 W/m2
02:56 15.6 °F /  -9.1 °C 12.4 °F /  -10.9 °C 29.95in /  1014.1hPa Calm     87% 0.00in /  0mm 0 W/m2
03:02 14.8 °F /  -9.6 °C 11.6 °F /  -11.3 °C 29.95in /  1014.1hPa Calm     87% 0.00in /  0mm 0 W/m2
03:08 14.4 °F /  -9.8 °C 11.2 °F /  -11.6 °C 29.95in /  1014.1hPa Calm     87% 0.00in /  0mm 0 W/m2
03:14 13.9 °F /  -10.1 °C 10.7 °F /  -11.8 °C 29.95in /  1014.1hPa Calm     87% 0.00in /  0mm 0 W/m2
03:19 13.5 °F /  -10.3 °C 10.4 °F /  -12 °C 29.95in /  1014.1hPa Calm     87% 0.00in /  0mm 0 W/m2
03:25 13.2 °F /  -10.4 °C 10.1 °F /  -12.2 °C 29.95in /  1014.1hPa Calm     87% 0.00in /  0mm 0 W/m2
03:32 12.8 °F /  -10.7 °C 9.7 °F /  -12.4 °C 29.95in /  1014.1hPa Calm     87% 0.00in /  0mm 0 W/m2
03:38 12.4 °F /  -10.9 °C 9.3 °F /  -12.6 °C 29.95in /  1014.1hPa Calm     87% 0.00in /  0mm 0 W/m2
03:44 12.1 °F /  -11.1 °C 9.0 °F /  -12.8 °C 29.95in /  1014.1hPa Calm     87% 0.00in /  0mm 0 W/m2
03:50 11.9 °F /  -11.2 °C 8.8 °F /  -12.9 °C 29.95in /  1014.1hPa Calm     87% 0.00in /  0mm 0 W/m2
03:56 11.6 °F /  -11.3 °C 8.7 °F /  -12.9 °C 29.95in /  1014.1hPa Calm     88% 0.00in /  0mm 0 W/m2
04:02 11.4 °F /  -11.4 °C 8.3 °F /  -13.2 °C 29.95in /  1014.1hPa Calm     87% 0.00in /  0mm 0 W/m2
04:08 11.0 °F /  -11.7 °C 8.1 °F /  -13.3 °C 29.95in /  1014.1hPa Calm     88% 0.00in /  0mm 0 W/m2
04:13 10.6 °F /  -11.9 °C 7.5 °F /  -13.6 °C 29.94in /  1013.8hPa Calm     87% 0.00in /  0mm 0 W/m2
04:20 10.4 °F /  -12 °C 7.6 °F /  -13.6 °C 29.94in /  1013.8hPa Calm     88% 0.00in /  0mm 0 W/m2
04:26 10.1 °F /  -12.2 °C 7.0 °F /  -13.9 °C 29.94in /  1013.8hPa Calm     87% 0.00in /  0mm 0 W/m2
04:32 9.7 °F /  -12.4 °C 6.9 °F /  -13.9 °C 29.95in /  1014.1hPa Calm     88% 0.00in /  0mm 0 W/m2
04:38 9.3 °F /  -12.6 °C 6.2 °F /  -14.3 °C 29.95in /  1014.1hPa Calm     87% 0.00in /  0mm 0 W/m2
04:44 9.0 °F /  -12.8 °C 5.9 °F /  -14.5 °C 29.95in /  1014.1hPa Calm     87% 0.00in /  0mm 0 W/m2
04:49 8.8 °F /  -12.9 °C 5.7 °F /  -14.6 °C 29.94in /  1013.8hPa Calm     87% 0.00in /  0mm 0 W/m2
04:56 8.7 °F /  -12.9 °C 5.9 °F /  -14.5 °C 29.94in /  1013.8hPa Calm     88% 0.00in /  0mm 0 W/m2
05:02 8.9 °F /  -12.8 °C 6.1 °F /  -14.4 °C 29.94in /  1013.8hPa Calm     88% 0.00in /  0mm 0 W/m2
05:08 9.1 °F /  -12.7 °C 6.3 °F /  -14.3 °C 29.95in /  1014.1hPa Calm     88% 0.00in /  0mm 0 W/m2
05:14 9.1 °F /  -12.7 °C 6.3 °F /  -14.3 °C 29.95in /  1014.1hPa Calm     88% 0.00in /  0mm 0 W/m2
05:20 9.1 °F /  -12.7 °C 6.3 °F /  -14.3 °C 29.95in /  1014.1hPa Calm     88% 0.00in /  0mm 0 W/m2
05:26 9.1 °F /  -12.7 °C 6.3 °F /  -14.3 °C 29.95in /  1014.1hPa Calm     88% 0.00in /  0mm 0 W/m2
05:32 9.1 °F /  -12.7 °C 6.3 °F /  -14.3 °C 29.95in /  1014.1hPa Calm     88% 0.00in /  0mm 0 W/m2
05:38 9.0 °F /  -12.8 °C 6.2 °F /  -14.3 °C 29.95in /  1014.1hPa Calm     88% 0.00in /  0mm 0 W/m2
05:43 8.9 °F /  -12.8 °C 6.1 °F /  -14.4 °C 29.95in /  1014.1hPa Calm     88% 0.00in /  0mm 0 W/m2
05:49 8.8 °F /  -12.9 °C 6.0 °F /  -14.4 °C 29.95in /  1014.1hPa Calm     88% 0.00in /  0mm 0 W/m2
05:56 8.8 °F /  -12.9 °C 6.0 °F /  -14.4 °C 29.95in /  1014.1hPa Calm     88% 0.00in /  0mm 0 W/m2
06:02 8.7 °F /  -12.9 °C 5.9 °F /  -14.5 °C 29.95in /  1014.1hPa Calm     88% 0.00in /  0mm 0 W/m2
06:08 8.7 °F /  -12.9 °C 5.9 °F /  -14.5 °C 29.95in /  1014.1hPa Calm     88% 0.00in /  0mm 0 W/m2
06:14 8.7 °F /  -12.9 °C 5.9 °F /  -14.5 °C 29.94in /  1013.8hPa Calm     88% 0.00in /  0mm 0 W/m2
06:20 8.6 °F /  -13 °C 5.8 °F /  -14.6 °C 29.94in /  1013.8hPa Calm     88% 0.00in /  0mm 0 W/m2
06:25 8.5 °F /  -13.1 °C 5.7 °F /  -14.6 °C 29.95in /  1014.1hPa Calm     88% 0.00in /  0mm 0 W/m2
06:32 8.3 °F /  -13.2 °C 5.5 °F /  -14.7 °C 29.95in /  1014.1hPa Calm     88% 0.00in /  0mm 0 W/m2
06:38 8.2 °F /  -13.2 °C 5.4 °F /  -14.8 °C 29.95in /  1014.1hPa Calm     88% 0.00in /  0mm 0 W/m2
06:44 8.1 °F /  -13.3 °C 5.3 °F /  -14.8 °C 29.95in /  1014.1hPa Calm     88% 0.00in /  0mm 0 W/m2
06:50 8.3 °F /  -13.2 °C 5.5 °F /  -14.7 °C 29.95in /  1014.1hPa Calm     88% 0.00in /  0mm 0 W/m2
06:55 8.5 °F /  -13.1 °C 5.7 °F /  -14.6 °C 29.95in /  1014.1hPa Calm     88% 0.00in /  0mm 0 W/m2
07:02 8.8 °F /  -12.9 °C 6.0 °F /  -14.4 °C 29.95in /  1014.1hPa Calm     88% 0.00in /  0mm 0 W/m2
07:08 9.1 °F /  -12.7 °C 6.3 °F /  -14.3 °C 29.95in /  1014.1hPa Calm     88% 0.00in /  0mm 0 W/m2
07:14 9.3 °F /  -12.6 °C 6.5 °F /  -14.2 °C 29.95in /  1014.1hPa Calm     88% 0.00in /  0mm 0 W/m2
07:20 9.7 °F /  -12.4 °C 7.1 °F /  -13.8 °C 29.95in /  1014.1hPa Calm     89% 0.00in /  0mm 0 W/m2
07:25 10.4 °F /  -12 °C 7.8 °F /  -13.4 °C 29.95in /  1014.1hPa Calm     89% 0.00in /  0mm 0 W/m2
07:32 11.8 °F /  -11.2 °C 9.2 °F /  -12.7 °C 29.95in /  1014.1hPa Calm     89% 0.00in /  0mm 0 W/m2
07:38 13.3 °F /  -10.4 °C 10.9 °F /  -11.7 °C 29.95in /  1014.1hPa Calm     90% 0.00in /  0mm 5 W/m2
07:44 14.5 °F /  -9.7 °C 12.1 °F /  -11.1 °C 29.96in /  1014.4hPa Calm     90% 0.00in /  0mm 5 W/m2
07:50 15.4 °F /  -9.2 °C 13.0 °F /  -10.6 °C 29.95in /  1014.1hPa Calm   1.0mph /  1.6km/h 90% 0.00in /  0mm 7 W/m2
07:55 16.9 °F /  -8.4 °C 14.7 °F /  -9.6 °C 29.95in /  1014.1hPa Calm   1.0mph /  1.6km/h 91% 0.00in /  0mm 11 W/m2
08:02 19.6 °F /  -6.9 °C 17.4 °F /  -8.1 °C 29.96in /  1014.4hPa SW 1.0mph /  1.6km/h 2.0mph /  3.2km/h 91% 0.00in /  0mm 11 W/m2
08:08 21.3 °F /  -5.9 °C 18.8 °F /  -7.3 °C 29.96in /  1014.4hPa SW 1.0mph /  1.6km/h 4.0mph /  6.4km/h 90% 0.00in /  0mm 19 W/m2
08:13 22.3 °F /  -5.4 °C 19.6 °F /  -6.9 °C 29.95in /  1014.1hPa SW 1.0mph /  1.6km/h 1.0mph /  1.6km/h 89% 0.00in /  0mm 23 W/m2
08:19 23.2 °F /  -4.9 °C 19.9 °F /  -6.7 °C 29.95in /  1014.1hPa WSW 1.0mph /  1.6km/h 4.0mph /  6.4km/h 87% 0.00in /  0mm 33 W/m2
08:26 24.0 °F /  -4.4 °C 20.1 °F /  -6.6 °C 29.95in /  1014.1hPa SW 1.0mph /  1.6km/h 4.0mph /  6.4km/h 85% 0.00in /  0mm 30 W/m2
08:32 24.7 °F /  -4.1 °C 20.3 °F /  -6.5 °C 29.95in /  1014.1hPa WSW 2.0mph /  3.2km/h 4.0mph /  6.4km/h 83% 0.00in /  0mm 32 W/m2
08:38 25.2 °F /  -3.8 °C 20.2 °F /  -6.6 °C 29.95in /  1014.1hPa WSW 2.0mph /  3.2km/h 4.0mph /  6.4km/h 81% 0.00in /  0mm 39 W/m2
08:43 25.6 °F /  -3.6 °C 20.6 °F /  -6.3 °C 29.95in /  1014.1hPa SW 2.0mph /  3.2km/h 5.0mph /  8km/h 81% 0.00in /  0mm 39 W/m2
08:49 25.9 °F /  -3.4 °C 20.6 °F /  -6.3 °C 29.95in /  1014.1hPa SW 3.0mph /  4.8km/h 3.0mph /  4.8km/h 80% 0.00in /  0mm 42 W/m2
08:56 26.2 °F /  -3.2 °C 20.6 °F /  -6.3 °C 29.95in /  1014.1hPa West 3.0mph /  4.8km/h 7.0mph /  11.3km/h 79% 0.00in /  0mm 44 W/m2
09:02 26.3 °F /  -3.2 °C 20.4 °F /  -6.4 °C 29.95in /  1014.1hPa WSW 2.0mph /  3.2km/h 3.0mph /  4.8km/h 78% 0.00in /  0mm 47 W/m2
09:08 26.4 °F /  -3.1 °C 20.5 °F /  -6.4 °C 29.95in /  1014.1hPa SW 2.0mph /  3.2km/h 4.0mph /  6.4km/h 78% 0.00in /  0mm 56 W/m2
09:14 26.6 °F /  -3 °C 20.7 °F /  -6.3 °C 29.94in /  1013.8hPa SW 3.0mph /  4.8km/h 5.0mph /  8km/h 78% 0.00in /  0mm 51 W/m2
09:20 26.8 °F /  -2.9 °C 20.9 °F /  -6.2 °C 29.94in /  1013.8hPa SSW 3.0mph /  4.8km/h 3.0mph /  4.8km/h 78% 0.00in /  0mm 72 W/m2
09:25 27.0 °F /  -2.8 °C 20.7 °F /  -6.3 °C 29.94in /  1013.8hPa SW 3.0mph /  4.8km/h 4.0mph /  6.4km/h 77% 0.00in /  0mm 79 W/m2
09:32 27.1 °F /  -2.7 °C 20.8 °F /  -6.2 °C 29.94in /  1013.8hPa SW 3.0mph /  4.8km/h 6.0mph /  9.7km/h 77% 0.00in /  0mm 79 W/m2
09:38 27.2 °F /  -2.7 °C 20.9 °F /  -6.2 °C 29.94in /  1013.8hPa SW 3.0mph /  4.8km/h 6.0mph /  9.7km/h 77% 0.00in /  0mm 88 W/m2
09:44 27.4 °F /  -2.6 °C 20.8 °F /  -6.2 °C 29.95in /  1014.1hPa WSW 3.0mph /  4.8km/h 8.0mph /  12.9km/h 76% 0.00in /  0mm 97 W/m2
09:50 27.5 °F /  -2.5 °C 20.9 °F /  -6.2 °C 29.96in /  1014.4hPa SW 4.0mph /  6.4km/h 4.0mph /  6.4km/h 76% 0.00in /  0mm 102 W/m2
09:55 27.6 °F /  -2.4 °C 21.0 °F /  -6.1 °C 29.96in /  1014.4hPa WSW 4.0mph /  6.4km/h 4.0mph /  6.4km/h 76% 0.00in /  0mm 114 W/m2
10:02 27.7 °F /  -2.4 °C 21.1 °F /  -6.1 °C 29.95in /  1014.1hPa WSW 3.0mph /  4.8km/h 5.0mph /  8km/h 76% 0.00in /  0mm 116 W/m2
10:10 27.9 °F /  -2.3 °C 21.0 °F /  -6.1 °C 29.95in /  1014.1hPa SW 3.0mph /  4.8km/h 5.0mph /  8km/h 75% 0.00in /  0mm 141 W/m2
10:16 28.1 °F /  -2.2 °C 21.2 °F /  -6 °C 29.95in /  1014.1hPa SW 4.0mph /  6.4km/h 5.0mph /  8km/h 75% 0.00in /  0mm 162 W/m2
10:22 28.3 °F /  -2.1 °C 21.4 °F /  -5.9 °C 29.95in /  1014.1hPa SW 4.0mph /  6.4km/h 7.0mph /  11.3km/h 75% 0.00in /  0mm 163 W/m2
10:28 28.5 °F /  -1.9 °C 21.6 °F /  -5.8 °C 29.95in /  1014.1hPa SW 3.0mph /  4.8km/h 7.0mph /  11.3km/h 75% 0.00in /  0mm 171 W/m2
10:34 28.8 °F /  -1.8 °C 21.9 °F /  -5.6 °C 29.95in /  1014.1hPa WSW 2.0mph /  3.2km/h 5.0mph /  8km/h 75% 0.00in /  0mm 195 W/m2
10:40 28.9 °F /  -1.7 °C 22.0 °F /  -5.6 °C 29.95in /  1014.1hPa SSW 3.0mph /  4.8km/h 5.0mph /  8km/h 75% 0.00in /  0mm 216 W/m2
10:45 29.1 °F /  -1.6 °C 21.8 °F /  -5.7 °C 29.95in /  1014.1hPa SSW 3.0mph /  4.8km/h 7.0mph /  11.3km/h 74% 0.00in /  0mm 251 W/m2
10:52 29.4 °F /  -1.4 °C 22.5 °F /  -5.3 °C 29.94in /  1013.8hPa West 4.0mph /  6.4km/h 7.0mph /  11.3km/h 75% 0.00in /  0mm 265 W/m2
10:58 29.5 °F /  -1.4 °C 22.2 °F /  -5.4 °C 29.94in /  1013.8hPa WSW 3.0mph /  4.8km/h 7.0mph /  11.3km/h 74% 0.00in /  0mm 116 W/m2
11:03 29.5 °F /  -1.4 °C 22.2 °F /  -5.4 °C 29.94in /  1013.8hPa West 4.0mph /  6.4km/h 4.0mph /  6.4km/h 74% 0.00in /  0mm 176 W/m2
11:09 29.7 °F /  -1.3 °C 22.1 °F /  -5.5 °C 29.94in /  1013.8hPa SW 4.0mph /  6.4km/h 7.0mph /  11.3km/h 73% 0.00in /  0mm 237 W/m2
11:16 30.0 °F /  -1.1 °C 22.7 °F /  -5.2 °C 29.94in /  1013.8hPa SW 4.0mph /  6.4km/h 7.0mph /  11.3km/h 74% 0.00in /  0mm 304 W/m2
11:22 30.4 °F /  -0.9 °C 22.8 °F /  -5.1 °C 29.94in /  1013.8hPa West 4.0mph /  6.4km/h 4.0mph /  6.4km/h 73% 0.00in /  0mm 276 W/m2
11:28 30.5 °F /  -0.8 °C 22.9 °F /  -5.1 °C 29.94in /  1013.8hPa WSW 3.0mph /  4.8km/h 8.0mph /  12.9km/h 73% 0.00in /  0mm 257 W/m2
11:34 30.6 °F /  -0.8 °C 23.0 °F /  -5 °C 29.93in /  1013.4hPa WSW 4.0mph /  6.4km/h 4.0mph /  6.4km/h 73% 0.00in /  0mm 232 W/m2
11:39 30.5 °F /  -0.8 °C 22.5 °F /  -5.3 °C 29.94in /  1013.8hPa WSW 4.0mph /  6.4km/h 4.0mph /  6.4km/h 72% 0.00in /  0mm 229 W/m2
11:46 30.5 °F /  -0.8 °C 22.2 °F /  -5.4 °C 29.94in /  1013.8hPa West 5.0mph /  8km/h 5.0mph /  8km/h 71% 0.00in /  0mm 229 W/m2
11:52 30.7 °F /  -0.7 °C 22.7 °F /  -5.2 °C 29.93in /  1013.4hPa SW 4.0mph /  6.4km/h 5.0mph /  8km/h 72% 0.00in /  0mm 244 W/m2
11:58 30.7 °F /  -0.7 °C 22.4 °F /  -5.3 °C 29.93in /  1013.4hPa West 4.0mph /  6.4km/h 5.0mph /  8km/h 71% 0.00in /  0mm 225 W/m2
12:04 30.7 °F /  -0.7 °C 22.4 °F /  -5.3 °C 29.93in /  1013.4hPa SW 4.0mph /  6.4km/h 5.0mph /  8km/h 71% 0.00in /  0mm 260 W/m2
12:10 30.7 °F /  -0.7 °C 22.4 °F /  -5.3 °C 29.93in /  1013.4hPa WSW 4.0mph /  6.4km/h 4.0mph /  6.4km/h 71% 0.00in /  0mm 220 W/m2
12:15 30.9 °F /  -0.6 °C 22.3 °F /  -5.4 °C 29.92in /  1013.1hPa SW 4.0mph /  6.4km/h 6.0mph /  9.7km/h 70% 0.00in /  0mm 283 W/m2
12:22 31.2 °F /  -0.4 °C 23.2 °F /  -4.9 °C 29.92in /  1013.1hPa WSW 4.0mph /  6.4km/h 6.0mph /  9.7km/h 72% 0.00in /  0mm 374 W/m2
12:28 31.1 °F /  -0.5 °C 23.1 °F /  -4.9 °C 29.91in /  1012.8hPa WSW 4.0mph /  6.4km/h 6.0mph /  9.7km/h 72% 0.00in /  0mm 376 W/m2
12:34 31.5 °F /  -0.3 °C 22.8 °F /  -5.1 °C 29.91in /  1012.8hPa SW 4.0mph /  6.4km/h 6.0mph /  9.7km/h 70% 0.00in /  0mm 417 W/m2
12:40 31.7 °F /  -0.2 °C 22.3 °F /  -5.4 °C 29.91in /  1012.8hPa WSW 4.0mph /  6.4km/h 4.0mph /  6.4km/h 68% 0.00in /  0mm 432 W/m2
12:46 32.4 °F /  0.2 °C 22.3 °F /  -5.4 °C 29.91in /  1012.8hPa SW 4.0mph /  6.4km/h 4.0mph /  6.4km/h 66% 0.00in /  0mm 606 W/m2
12:52 31.7 °F /  -0.2 °C 21.6 °F /  -5.8 °C 29.91in /  1012.8hPa WSW 4.0mph /  6.4km/h 5.0mph /  8km/h 66% 0.00in /  0mm 283 W/m2
12:58 32.6 °F /  0.3 °C 22.1 °F /  -5.5 °C 29.90in /  1012.4hPa SW 4.0mph /  6.4km/h 7.0mph /  11.3km/h 65% 0.00in /  0mm 499 W/m2
13:04 33.2 °F /  0.7 °C 22.0 °F /  -5.6 °C 29.90in /  1012.4hPa SW 3.0mph /  4.8km/h 9.0mph /  14.5km/h 63% 0.00in /  0mm 473 W/m2
13:10 33.1 °F /  0.6 °C 21.9 °F /  -5.6 °C 29.90in /  1012.4hPa South 4.0mph /  6.4km/h 6.0mph /  9.7km/h 63% 0.00in /  0mm 439 W/m2
13:15 32.7 °F /  0.4 °C 21.5 °F /  -5.8 °C 29.90in /  1012.4hPa SW 5.0mph /  8km/h 8.0mph /  12.9km/h 63% 0.00in /  0mm 355 W/m2
13:22 32.7 °F /  0.4 °C 21.5 °F /  -5.8 °C 29.90in /  1012.4hPa South 5.0mph /  8km/h 9.0mph /  14.5km/h 63% 0.00in /  0mm 424 W/m2
13:28 32.9 °F /  0.5 °C 21.7 °F /  -5.7 °C 29.91in /  1012.8hPa SW 4.0mph /  6.4km/h 9.0mph /  14.5km/h 63% 0.00in /  0mm 411 W/m2
13:34 32.5 °F /  0.3 °C 20.9 °F /  -6.2 °C 29.90in /  1012.4hPa SW 4.0mph /  6.4km/h 5.0mph /  8km/h 62% 0.00in /  0mm 420 W/m2
13:40 32.6 °F /  0.3 °C 21.0 °F /  -6.1 °C 29.90in /  1012.4hPa SW 4.0mph /  6.4km/h 6.0mph /  9.7km/h 62% 0.00in /  0mm 411 W/m2
13:45 32.3 °F /  0.2 °C 20.7 °F /  -6.3 °C 29.90in /  1012.4hPa West 4.0mph /  6.4km/h 6.0mph /  9.7km/h 62% 0.00in /  0mm 401 W/m2
13:52 32.3 °F /  0.2 °C 20.7 °F /  -6.3 °C 29.91in /  1012.8hPa SW 5.0mph /  8km/h 6.0mph /  9.7km/h 62% 0.00in /  0mm 396 W/m2
13:58 32.5 °F /  0.3 °C 20.5 °F /  -6.4 °C 29.91in /  1012.8hPa WSW 4.0mph /  6.4km/h 7.0mph /  11.3km/h 61% 0.00in /  0mm 387 W/m2
14:04 32.7 °F /  0.4 °C 20.7 °F /  -6.3 °C 29.91in /  1012.8hPa SW 4.0mph /  6.4km/h 5.0mph /  8km/h 61% 0.00in /  0mm 381 W/m2
14:10 32.5 °F /  0.3 °C 20.1 °F /  -6.6 °C 29.91in /  1012.8hPa SW 4.0mph /  6.4km/h 6.0mph /  9.7km/h 60% 0.00in /  0mm 371 W/m2
14:15 32.7 °F /  0.4 °C 20.7 °F /  -6.3 °C 29.90in /  1012.4hPa South 4.0mph /  6.4km/h 6.0mph /  9.7km/h 61% 0.00in /  0mm 357 W/m2
14:22 32.8 °F /  0.4 °C 20.4 °F /  -6.4 °C 29.90in /  1012.4hPa West 3.0mph /  4.8km/h 4.0mph /  6.4km/h 60% 0.00in /  0mm 350 W/m2
14:28 32.6 °F /  0.3 °C 20.2 °F /  -6.6 °C 29.90in /  1012.4hPa WSW 4.0mph /  6.4km/h 10.0mph /  16.1km/h 60% 0.00in /  0mm 339 W/m2
14:34 32.6 °F /  0.3 °C 20.2 °F /  -6.6 °C 29.89in /  1012.1hPa SW 4.0mph /  6.4km/h 6.0mph /  9.7km/h 60% 0.00in /  0mm 330 W/m2
14:40 32.5 °F /  0.3 °C 20.1 °F /  -6.6 °C 29.88in /  1011.7hPa SSW 4.0mph /  6.4km/h 4.0mph /  6.4km/h 60% 0.00in /  0mm 320 W/m2
14:45 32.5 °F /  0.3 °C 20.1 °F /  -6.6 °C 29.88in /  1011.7hPa SSW 4.0mph /  6.4km/h 7.0mph /  11.3km/h 60% 0.00in /  0mm 309 W/m2
14:52 32.9 °F /  0.5 °C 20.5 °F /  -6.4 °C 29.88in /  1011.7hPa SSW 4.0mph /  6.4km/h 5.0mph /  8km/h 60% 0.00in /  0mm 299 W/m2
14:58 32.9 °F /  0.5 °C 20.1 °F /  -6.6 °C 29.88in /  1011.7hPa SE 4.0mph /  6.4km/h 8.0mph /  12.9km/h 59% 0.00in /  0mm 283 W/m2
15:03 32.8 °F /  0.4 °C 20.0 °F /  -6.7 °C 29.88in /  1011.7hPa South 4.0mph /  6.4km/h 10.0mph /  16.1km/h 59% 0.00in /  0mm 271 W/m2
15:10 32.8 °F /  0.4 °C 20.0 °F /  -6.7 °C 29.88in /  1011.7hPa SSW 4.0mph /  6.4km/h 4.0mph /  6.4km/h 59% 0.00in /  0mm 255 W/m2
15:16 32.9 °F /  0.5 °C 19.7 °F /  -6.8 °C 29.88in /  1011.7hPa South 3.0mph /  4.8km/h 4.0mph /  6.4km/h 58% 0.00in /  0mm 239 W/m2
15:22 33.1 °F /  0.6 °C 20.3 °F /  -6.5 °C 29.88in /  1011.7hPa SW 3.0mph /  4.8km/h 3.0mph /  4.8km/h 59% 0.00in /  0mm 230 W/m2
15:28 33.3 °F /  0.7 °C 19.7 °F /  -6.8 °C 29.88in /  1011.7hPa SW 3.0mph /  4.8km/h 6.0mph /  9.7km/h 57% 0.00in /  0mm 209 W/m2
15:33 33.5 °F /  0.8 °C 20.3 °F /  -6.5 °C 29.88in /  1011.7hPa West 3.0mph /  4.8km/h 3.0mph /  4.8km/h 58% 0.00in /  0mm 197 W/m2
15:40 33.6 °F /  0.9 °C 20.0 °F /  -6.7 °C 29.88in /  1011.7hPa West 2.0mph /  3.2km/h 2.0mph /  3.2km/h 57% 0.00in /  0mm 185 W/m2
15:46 33.5 °F /  0.8 °C 19.9 °F /  -6.7 °C 29.88in /  1011.7hPa West 2.0mph /  3.2km/h 4.0mph /  6.4km/h 57% 0.00in /  0mm 174 W/m2
15:52 33.4 °F /  0.8 °C 19.4 °F /  -7 °C 29.88in /  1011.7hPa South 2.0mph /  3.2km/h 4.0mph /  6.4km/h 56% 0.00in /  0mm 156 W/m2
15:58 33.2 °F /  0.7 °C 19.6 °F /  -6.9 °C 29.88in /  1011.7hPa SW 2.0mph /  3.2km/h 5.0mph /  8km/h 57% 0.00in /  0mm 148 W/m2
16:03 33.3 °F /  0.7 °C 19.3 °F /  -7.1 °C 29.88in /  1011.7hPa SW 2.0mph /  3.2km/h 3.0mph /  4.8km/h 56% 0.00in /  0mm 134 W/m2
16:10 33.3 °F /  0.7 °C 19.3 °F /  -7.1 °C 29.87in /  1011.4hPa SW 1.0mph /  1.6km/h 1.0mph /  1.6km/h 56% 0.00in /  0mm 113 W/m2
16:15 33.3 °F /  0.7 °C 19.3 °F /  -7.1 °C 29.87in /  1011.4hPa SSW 2.0mph /  3.2km/h 2.0mph /  3.2km/h 56% 0.00in /  0mm 35 W/m2
16:22 33.0 °F /  0.6 °C 19.0 °F /  -7.2 °C 29.86in /  1011.1hPa SSW 1.0mph /  1.6km/h 2.0mph /  3.2km/h 56% 0.00in /  0mm 26 W/m2
16:28 32.7 °F /  0.4 °C 19.1 °F /  -7.2 °C 29.86in /  1011.1hPa SSW 1.0mph /  1.6km/h 2.0mph /  3.2km/h 57% 0.00in /  0mm 28 W/m2
16:34 32.5 °F /  0.3 °C 19.3 °F /  -7.1 °C 29.86in /  1011.1hPa Calm   1.0mph /  1.6km/h 58% 0.00in /  0mm 26 W/m2
16:40 32.2 °F /  0.1 °C 19.1 °F /  -7.2 °C 29.86in /  1011.1hPa Calm     58% 0.00in /  0mm 21 W/m2
16:46 31.5 °F /  -0.3 °C 18.8 °F /  -7.3 °C 29.85in /  1010.7hPa Calm     59% 0.00in /  0mm 14 W/m2
16:52 30.9 °F /  -0.6 °C 19.0 °F /  -7.2 °C 29.85in /  1010.7hPa Calm     61% 0.00in /  0mm 9 W/m2
16:58 30.3 °F /  -0.9 °C 19.2 °F /  -7.1 °C 29.85in /  1010.7hPa Calm     63% 0.00in /  0mm 5 W/m2
17:04 29.6 °F /  -1.3 °C 18.9 °F /  -7.3 °C 29.85in /  1010.7hPa Calm     64% 0.00in /  0mm 5 W/m2
17:10 28.7 °F /  -1.8 °C 18.8 °F /  -7.3 °C 29.84in /  1010.4hPa Calm     66% 0.00in /  0mm 0 W/m2
17:16 28.0 °F /  -2.2 °C 18.5 °F /  -7.5 °C 29.85in /  1010.7hPa Calm     67% 0.00in /  0mm 0 W/m2
17:22 27.6 °F /  -2.4 °C 18.8 °F /  -7.3 °C 29.85in /  1010.7hPa Calm     69% 0.00in /  0mm 0 W/m2
17:28 27.2 °F /  -2.7 °C 18.7 °F /  -7.4 °C 29.85in /  1010.7hPa Calm     70% 0.00in /  0mm 0 W/m2
17:36 26.4 °F /  -3.1 °C 18.3 °F /  -7.6 °C 29.85in /  1010.7hPa Calm     71% 0.00in /  0mm 0 W/m2
17:42 26.1 °F /  -3.3 °C 18.3 °F /  -7.6 °C 29.84in /  1010.4hPa Calm     72% 0.00in /  0mm 0 W/m2
17:48 26.2 °F /  -3.2 °C 18.7 °F /  -7.4 °C 29.85in /  1010.7hPa Calm     73% 0.00in /  0mm 0 W/m2
17:54 26.1 °F /  -3.3 °C 18.6 °F /  -7.4 °C 29.85in /  1010.7hPa Calm     73% 0.00in /  0mm 0 W/m2
18:00 25.8 °F /  -3.4 °C 18.3 °F /  -7.6 °C 29.85in /  1010.7hPa Calm     73% 0.00in /  0mm 0 W/m2
18:05 25.6 °F /  -3.6 °C 18.5 °F /  -7.5 °C 29.85in /  1010.7hPa Calm     74% 0.00in /  0mm 0 W/m2
18:12 25.3 °F /  -3.7 °C 18.2 °F /  -7.7 °C 29.85in /  1010.7hPa Calm     74% 0.00in /  0mm 0 W/m2
18:18 25.2 °F /  -3.8 °C 18.1 °F /  -7.7 °C 29.85in /  1010.7hPa Calm     74% 0.00in /  0mm 0 W/m2
18:23 25.0 °F /  -3.9 °C 17.9 °F /  -7.8 °C 29.85in /  1010.7hPa Calm   1.0mph /  1.6km/h 74% 0.00in /  0mm 0 W/m2
18:30 24.5 °F /  -4.2 °C 17.7 °F /  -7.9 °C 29.84in /  1010.4hPa Calm     75% 0.00in /  0mm 0 W/m2
18:35 24.2 °F /  -4.3 °C 17.4 °F /  -8.1 °C 29.84in /  1010.4hPa Calm     75% 0.00in /  0mm 0 W/m2
18:42 23.9 °F /  -4.5 °C 17.4 °F /  -8.1 °C 29.83in /  1010hPa Calm     76% 0.00in /  0mm 0 W/m2
18:48 24.1 °F /  -4.4 °C 17.9 °F /  -7.8 °C 29.83in /  1010hPa Calm     77% 0.00in /  0mm 0 W/m2
18:54 24.2 °F /  -4.3 °C 18.0 °F /  -7.8 °C 29.83in /  1010hPa ESE 1.0mph /  1.6km/h 3.0mph /  4.8km/h 77% 0.00in /  0mm 0 W/m2
19:00 24.6 °F /  -4.1 °C 18.4 °F /  -7.6 °C 29.83in /  1010hPa ESE 1.0mph /  1.6km/h 1.0mph /  1.6km/h 77% 0.00in /  0mm 0 W/m2
19:06 25.0 °F /  -3.9 °C 18.8 °F /  -7.3 °C 29.83in /  1010hPa ESE 1.0mph /  1.6km/h 3.0mph /  4.8km/h 77% 0.00in /  0mm 0 W/m2
19:12 25.2 °F /  -3.8 °C 19.0 °F /  -7.2 °C 29.83in /  1010hPa ESE 1.0mph /  1.6km/h 1.0mph /  1.6km/h 77% 0.00in /  0mm 0 W/m2
19:18 25.5 °F /  -3.6 °C 19.0 °F /  -7.2 °C 29.83in /  1010hPa Calm   1.0mph /  1.6km/h 76% 0.00in /  0mm 0 W/m2
19:23 25.3 °F /  -3.7 °C 18.8 °F /  -7.3 °C 29.82in /  1009.7hPa Calm     76% 0.00in /  0mm 0 W/m2
19:30 25.4 °F /  -3.7 °C 18.9 °F /  -7.3 °C 29.82in /  1009.7hPa Calm     76% 0.00in /  0mm 0 W/m2
19:36 25.3 °F /  -3.7 °C 18.5 °F /  -7.5 °C 29.82in /  1009.7hPa Calm   2.0mph /  3.2km/h 75% 0.00in /  0mm 0 W/m2
19:42 25.3 °F /  -3.7 °C 18.5 °F /  -7.5 °C 29.82in /  1009.7hPa Calm     75% 0.00in /  0mm 0 W/m2
19:48 24.9 °F /  -3.9 °C 18.1 °F /  -7.7 °C 29.82in /  1009.7hPa Calm     75% 0.00in /  0mm 0 W/m2
19:53 24.3 °F /  -4.3 °C 17.8 °F /  -7.9 °C 29.82in /  1009.7hPa Calm     76% 0.00in /  0mm 0 W/m2
19:59 23.9 °F /  -4.5 °C 17.4 °F /  -8.1 °C 29.82in /  1009.7hPa Calm     76% 0.00in /  0mm 0 W/m2
20:05 23.6 °F /  -4.7 °C 17.4 °F /  -8.1 °C 29.82in /  1009.7hPa Calm     77% 0.00in /  0mm 0 W/m2
20:12 23.3 °F /  -4.8 °C 17.5 °F /  -8.1 °C 29.81in /  1009.4hPa Calm     78% 0.00in /  0mm 0 W/m2
20:18 23.1 °F /  -4.9 °C 17.3 °F /  -8.2 °C 29.81in /  1009.4hPa Calm     78% 0.00in /  0mm 0 W/m2
20:23 22.9 °F /  -5.1 °C 17.4 °F /  -8.1 °C 29.81in /  1009.4hPa Calm     79% 0.00in /  0mm 0 W/m2
20:29 22.5 °F /  -5.3 °C 17.0 °F /  -8.3 °C 29.81in /  1009.4hPa Calm     79% 0.00in /  0mm 0 W/m2
20:36 22.2 °F /  -5.4 °C 17.0 °F /  -8.3 °C 29.81in /  1009.4hPa Calm     80% 0.00in /  0mm 0 W/m2
20:42 22.1 °F /  -5.5 °C 17.2 °F /  -8.2 °C 29.80in /  1009hPa Calm     81% 0.00in /  0mm 0 W/m2
20:48 21.9 °F /  -5.6 °C 17.0 °F /  -8.3 °C 29.80in /  1009hPa Calm     81% 0.00in /  0mm 0 W/m2
20:53 21.8 °F /  -5.7 °C 16.9 °F /  -8.4 °C 29.80in /  1009hPa Calm     81% 0.00in /  0mm 0 W/m2
21:00 21.8 °F /  -5.7 °C 17.2 °F /  -8.2 °C 29.80in /  1009hPa Calm     82% 0.00in /  0mm 0 W/m2
21:05 21.9 °F /  -5.6 °C 17.2 °F /  -8.2 °C 29.80in /  1009hPa Calm     82% 0.00in /  0mm 0 W/m2
21:12 22.0 °F /  -5.6 °C 17.3 °F /  -8.2 °C 29.80in /  1009hPa Calm     82% 0.00in /  0mm 0 W/m2
21:18 22.1 °F /  -5.5 °C 17.4 °F /  -8.1 °C 29.80in /  1009hPa Calm     82% 0.00in /  0mm 0 W/m2
21:24 21.9 °F /  -5.6 °C 17.2 °F /  -8.2 °C 29.80in /  1009hPa Calm     82% 0.00in /  0mm 0 W/m2
21:29 21.8 °F /  -5.7 °C 17.2 °F /  -8.2 °C 29.80in /  1009hPa Calm     82% 0.00in /  0mm 0 W/m2
21:36 21.9 °F /  -5.6 °C 17.2 °F /  -8.2 °C 29.79in /  1008.7hPa Calm     82% 0.00in /  0mm 0 W/m2
21:42 22.3 °F /  -5.4 °C 17.9 °F /  -7.8 °C 29.79in /  1008.7hPa Calm     83% 0.00in /  0mm 0 W/m2
21:48 22.8 °F /  -5.1 °C 18.4 °F /  -7.6 °C 29.78in /  1008.4hPa Calm     83% 0.00in /  0mm 0 W/m2
21:54 23.1 °F /  -4.9 °C 18.7 °F /  -7.4 °C 29.78in /  1008.4hPa Calm     83% 0.00in /  0mm 0 W/m2
21:59 23.4 °F /  -4.8 °C 19.0 °F /  -7.2 °C 29.78in /  1008.4hPa Calm     83% 0.00in /  0mm 0 W/m2
22:05 23.6 °F /  -4.7 °C 18.9 °F /  -7.3 °C 29.77in /  1008hPa Calm     82% 0.00in /  0mm 0 W/m2
22:12 23.8 °F /  -4.6 °C 19.1 °F /  -7.2 °C 29.77in /  1008hPa Calm     82% 0.00in /  0mm 0 W/m2
22:18 23.7 °F /  -4.6 °C 19.0 °F /  -7.2 °C 29.77in /  1008hPa Calm     82% 0.00in /  0mm 0 W/m2
22:24 23.7 °F /  -4.6 °C 19.0 °F /  -7.2 °C 29.77in /  1008hPa Calm     82% 0.00in /  0mm 0 W/m2
22:30 23.7 °F /  -4.6 °C 19.0 °F /  -7.2 °C 29.77in /  1008hPa Calm     82% 0.00in /  0mm 0 W/m2
22:36 23.6 °F /  -4.7 °C 18.9 °F /  -7.3 °C 29.77in /  1008hPa Calm     82% 0.00in /  0mm 0 W/m2
22:42 23.3 °F /  -4.8 °C 18.6 °F /  -7.4 °C 29.76in /  1007.7hPa Calm     82% 0.00in /  0mm 0 W/m2
22:48 23.3 °F /  -4.8 °C 18.6 °F /  -7.4 °C 29.75in /  1007.3hPa Calm     82% 0.00in /  0mm 0 W/m2
22:54 23.6 °F /  -4.7 °C 19.2 °F /  -7.1 °C 29.75in /  1007.3hPa Calm     83% 0.00in /  0mm 0 W/m2
22:59 23.9 °F /  -4.5 °C 19.5 °F /  -6.9 °C 29.75in /  1007.3hPa Calm     83% 0.00in /  0mm 0 W/m2
23:06 24.0 °F /  -4.4 °C 19.6 °F /  -6.9 °C 29.75in /  1007.3hPa Calm     83% 0.00in /  0mm 0 W/m2
23:12 24.3 °F /  -4.3 °C 19.9 °F /  -6.7 °C 29.74in /  1007hPa Calm     83% 0.00in /  0mm 0 W/m2
23:18 24.5 °F /  -4.2 °C 20.1 °F /  -6.6 °C 29.74in /  1007hPa Calm     83% 0.00in /  0mm 0 W/m2
23:24 24.7 °F /  -4.1 °C 20.3 °F /  -6.5 °C 29.74in /  1007hPa Calm     83% 0.00in /  0mm 0 W/m2
23:30 25.0 °F /  -3.9 °C 20.6 °F /  -6.3 °C 29.74in /  1007hPa Calm     83% 0.00in /  0mm 0 W/m2
23:35 25.4 °F /  -3.7 °C 21.0 °F /  -6.1 °C 29.74in /  1007hPa Calm   1.0mph /  1.6km/h 83% 0.00in /  0mm 0 W/m2
23:42 26.8 °F /  -2.9 °C 22.0 °F /  -5.6 °C 29.74in /  1007hPa Calm     82% 0.00in /  0mm 0 W/m2
23:48 26.5 °F /  -3.1 °C 21.2 °F /  -6 °C 29.74in /  1007hPa Calm   1.0mph /  1.6km/h 80% 0.00in /  0mm 0 W/m2
23:54 26.0 °F /  -3.3 °C 20.7 °F /  -6.3 °C 29.74in /  1007hPa Calm     80% 0.00in /  0mm 0 W/m2
23:59 26.0 °F /  -3.3 °C 20.7 °F /  -6.3 °C 29.74in /  1007hPa Calm     80% 0.00in /  0mm 0 W/m2
Country Meadow, Clay, NY, USA
Compliments of Weather Underground - 2 mb